Time;durP1;ratioP1;P1;durP2;ratioP2;P2;SDS_P1;SDS_P2;PMS_P1;PMS_P2;Temp;Humidity;BMP_temperature;BMP_pressure;BME280_temperature;BME280_humidity;BME280_pressure;Samples;Min_cycle;Max_cycle;Signal;HPM_P1;HPM_P2
2023/04/06 00:01:48;;;;;;;0.30;0.30;;;8.10;57.40;;;;;;5089386;28;20550;-74
2023/04/06 00:04:14;;;;;;;0.20;0.20;;;8.00;57.40;;;;;;5084591;28;20034;-75
2023/04/06 00:06:40;;;;;;;0.68;0.68;;;7.90;58.30;;;;;;5099128;28;20028;-74
2023/04/06 00:09:05;;;;;;;0.47;0.20;;;7.90;58.20;;;;;;5093235;28;20036;-74
2023/04/06 00:11:31;;;;;;;0.35;0.35;;;7.80;58.00;;;;;;5092169;28;20060;-74
2023/04/06 00:13:57;;;;;;;0.10;0.10;;;7.80;58.20;;;;;;5092093;28;20031;-75
2023/04/06 00:16:23;;;;;;;0.10;0.10;;;7.80;58.10;;;;;;5089343;28;20032;-77
2023/04/06 00:18:48;;;;;;;0.10;0.10;;;7.70;58.30;;;;;;5091664;28;20046;-75
2023/04/06 00:21:14;;;;;;;0.10;0.10;;;7.70;58.70;;;;;;5088479;28;20040;-76
2023/04/06 00:23:41;;;;;;;0.30;0.30;;;7.70;58.10;;;;;;5100256;28;20035;-75
2023/04/06 00:26:08;;;;;;;0.10;0.10;;;7.70;58.20;;;;;;5101212;28;20528;-75
2023/04/06 00:28:33;;;;;;;1.45;1.35;;;7.70;58.20;;;;;;5092673;28;20076;-74
2023/04/06 00:30:59;;;;;;;0.25;0.25;;;7.70;58.90;;;;;;5094042;28;20031;-74
2023/04/06 00:33:25;;;;;;;1.67;0.73;;;7.60;58.90;;;;;;5088704;28;20070;-74
2023/04/06 00:35:51;;;;;;;0.57;0.57;;;7.70;58.50;;;;;;5093227;28;20019;-76
2023/04/06 00:38:17;;;;;;;0.00;0.00;;;7.70;58.70;;;;;;5096079;28;20035;-73
2023/04/06 00:40:46;;;;;;;1.08;1.02;;;7.80;58.50;;;;;;5092748;28;20028;-74
2023/04/06 00:43:12;;;;;;;0.10;0.10;;;7.90;58.30;;;;;;5089143;28;20719;-73
2023/04/06 00:45:39;;;;;;;0.45;0.45;;;7.90;58.60;;;;;;5097935;28;20051;-74
2023/04/06 00:48:05;;;;;;;;;;;7.90;58.30;;;;;;5098314;28;20020;-73
2023/04/06 00:50:31;;;;;;;0.10;0.10;;;7.90;58.10;;;;;;5097132;28;20583;-75
2023/04/06 00:52:58;;;;;;;0.30;0.30;;;7.90;58.50;;;;;;5095667;28;20035;-76
2023/04/06 00:55:24;;;;;;;0.25;0.25;;;7.90;58.50;;;;;;5088263;28;20040;-77
2023/04/06 00:57:50;;;;;;;0.20;0.20;;;7.90;58.20;;;;;;5083614;28;20048;-75
2023/04/06 01:00:16;;;;;;;0.77;0.77;;;7.90;59.10;;;;;;5095153;28;20032;-75
2023/04/06 01:02:44;;;;;;;0.10;0.10;;;7.80;60.10;;;;;;5095281;28;20093;-76
2023/04/06 01:05:10;;;;;;;0.50;0.50;;;7.80;59.80;;;;;;5088145;28;20024;-74
2023/04/06 01:07:36;;;;;;;0.47;0.47;;;7.80;59.10;;;;;;5090560;28;20121;-73
2023/04/06 01:10:02;;;;;;;1.60;0.60;;;7.80;59.30;;;;;;5096510;28;20028;-74
2023/04/06 01:12:28;;;;;;;0.10;0.10;;;7.80;59.60;;;;;;5089942;28;20075;-76
2023/04/06 01:14:54;;;;;;;1.67;1.07;;;7.80;60.00;;;;;;5100196;28;20824;-75
2023/04/06 01:17:20;;;;;;;1.20;0.50;;;7.70;59.60;;;;;;5100837;28;20023;-73
2023/04/06 01:19:46;;;;;;;0.20;0.20;;;7.70;60.70;;;;;;5086209;28;20411;-74
2023/04/06 01:22:18;;;;;;;7.57;1.17;;;7.70;60.40;;;;;;5090520;28;20030;-74
2023/04/06 01:24:44;;;;;;;0.82;0.70;;;7.70;61.00;;;;;;5098449;28;20143;-76
2023/04/06 01:27:11;;;;;;;0.20;0.20;;;7.60;61.60;;;;;;5086410;28;20034;-75
2023/04/06 01:29:36;;;;;;;0.10;0.10;;;7.60;61.60;;;;;;5100926;28;20039;-75
2023/04/06 01:32:02;;;;;;;0.10;0.10;;;7.60;61.30;;;;;;5101592;28;20024;-75
2023/04/06 01:34:28;;;;;;;0.30;0.30;;;7.50;62.70;;;;;;5087372;28;20131;-74
2023/04/06 01:36:54;;;;;;;0.45;0.45;;;7.50;62.80;;;;;;5098687;28;20042;-77
2023/04/06 01:39:20;;;;;;;0.10;0.10;;;7.40;63.40;;;;;;5096410;28;20032;-75
2023/04/06 01:41:49;;;;;;;0.10;0.10;;;7.40;63.00;;;;;;5088631;28;20467;-73
2023/04/06 01:44:21;;;;;;;0.43;0.43;;;7.40;62.90;;;;;;5096428;28;20019;-74
2023/04/06 01:46:47;;;;;;;1.88;0.73;;;7.40;63.40;;;;;;5090808;28;20032;-74
2023/04/06 01:49:12;;;;;;;0.22;0.22;;;7.30;63.50;;;;;;5095384;28;20039;-76
2023/04/06 01:51:38;;;;;;;0.70;0.50;;;7.30;64.20;;;;;;5102527;28;20034;-73
2023/04/06 01:54:04;;;;;;;0.52;0.52;;;7.30;63.60;;;;;;5100921;28;20027;-75
2023/04/06 01:56:30;;;;;;;0.90;0.90;;;7.30;63.10;;;;;;5093690;28;20452;-74
2023/04/06 01:58:56;;;;;;;0.57;0.47;;;7.30;63.80;;;;;;5099874;28;20042;-77
2023/04/06 02:01:21;;;;;;;0.40;0.40;;;7.30;63.80;;;;;;5087851;28;20024;-73
2023/04/06 02:03:47;;;;;;;0.25;0.25;;;7.30;63.90;;;;;;5095822;28;20043;-74
2023/04/06 02:06:13;;;;;;;0.17;0.17;;;7.20;64.50;;;;;;5102191;28;20042;-73
2023/04/06 02:08:39;;;;;;;0.10;0.10;;;7.20;64.20;;;;;;5092315;28;20031;-77
2023/04/06 02:11:05;;;;;;;0.40;0.25;;;7.20;65.00;;;;;;5095003;28;20138;-73
2023/04/06 02:13:31;;;;;;;6.88;0.57;;;7.20;64.80;;;;;;5089400;28;20027;-74
2023/04/06 02:15:57;;;;;;;0.30;0.30;;;7.20;63.90;;;;;;5097182;28;20031;-73
2023/04/06 02:18:22;;;;;;;0.00;0.00;;;7.20;64.70;;;;;;5094687;28;20089;-75
2023/04/06 02:20:48;;;;;;;0.10;0.10;;;7.20;66.10;;;;;;5092952;28;20706;-74
2023/04/06 02:23:14;;;;;;;0.10;0.10;;;7.10;65.00;;;;;;5096137;28;20073;-76
2023/04/06 02:25:40;;;;;;;0.47;0.25;;;7.10;65.20;;;;;;5089240;28;20028;-75
2023/04/06 02:28:06;;;;;;;0.50;0.50;;;7.10;65.30;;;;;;5099474;28;20016;-74
2023/04/06 02:30:32;;;;;;;0.10;0.10;;;7.10;65.30;;;;;;5089781;28;20277;-74
2023/04/06 02:33:00;;;;;;;0.10;0.10;;;7.10;64.80;;;;;;5096404;28;20091;-74
2023/04/06 02:35:25;;;;;;;0.35;0.35;;;7.10;65.50;;;;;;5097070;28;20028;-74
2023/04/06 02:37:51;;;;;;;0.40;0.40;;;7.10;64.40;;;;;;5086982;28;20441;-74
2023/04/06 02:40:17;;;;;;;0.10;0.10;;;7.10;65.00;;;;;;5097449;28;20580;-77
2023/04/06 02:42:42;;;;;;;0.00;0.00;;;7.20;64.70;;;;;;5091733;28;20465;-73
2023/04/06 02:45:08;;;;;;;0.13;0.13;;;7.20;64.50;;;;;;5092035;28;20028;-74
2023/04/06 02:47:34;;;;;;;0.20;0.20;;;7.20;64.60;;;;;;5096193;28;20108;-75
2023/04/06 02:50:00;;;;;;;0.30;0.25;;;7.10;65.10;;;;;;5100929;28;20032;-76
2023/04/06 02:52:26;;;;;;;0.20;0.20;;;7.20;65.10;;;;;;5102418;28;20482;-73
2023/04/06 02:54:51;;;;;;;0.20;0.20;;;7.30;64.50;;;;;;5095070;28;20639;-74
2023/04/06 02:57:17;;;;;;;0.10;0.10;;;7.20;64.40;;;;;;5086488;28;20076;-73
2023/04/06 02:59:43;;;;;;;0.30;0.20;;;7.30;64.20;;;;;;5091644;28;20027;-73
2023/04/06 03:02:08;;;;;;;0.20;0.20;;;7.30;63.90;;;;;;5088406;28;20193;-73
2023/04/06 03:04:34;;;;;;;0.30;0.30;;;7.20;64.80;;;;;;5095893;28;20069;-76
2023/04/06 03:07:00;;;;;;;0.10;0.10;;;7.20;64.20;;;;;;5095987;27;20034;-74
2023/04/06 03:09:27;;;;;;;0.28;0.28;;;7.20;65.30;;;;;;5092510;28;20024;-75
2023/04/06 03:11:52;;;;;;;0.10;0.10;;;7.10;65.20;;;;;;5097503;28;20057;-73
2023/04/06 03:14:21;;;;;;;0.00;0.00;;;7.10;65.30;;;;;;5094897;28;20031;-75
2023/04/06 03:16:47;;;;;;;0.20;0.20;;;7.10;65.00;;;;;;5100445;28;20049;-72
2023/04/06 03:19:13;;;;;;;0.28;0.28;;;7.10;65.80;;;;;;5100650;28;20031;-73
2023/04/06 03:21:39;;;;;;;0.88;0.55;;;7.00;65.90;;;;;;5096599;28;20474;-75
2023/04/06 03:24:05;;;;;;;1.25;0.40;;;7.00;66.00;;;;;;5100203;28;20062;-74
2023/04/06 03:26:31;;;;;;;1.40;0.90;;;6.90;66.60;;;;;;5090265;28;20099;-74
2023/04/06 03:28:56;;;;;;;0.30;0.30;;;6.90;67.00;;;;;;5093509;28;20038;-72
2023/04/06 03:31:22;;;;;;;0.13;0.13;;;6.90;66.70;;;;;;5095321;28;20107;-74
2023/04/06 03:33:48;;;;;;;0.10;0.10;;;6.90;66.60;;;;;;5090401;28;20077;-72
2023/04/06 03:36:14;;;;;;;0.20;0.20;;;6.90;66.60;;;;;;5091491;28;20059;-73
2023/04/06 03:38:40;;;;;;;0.73;0.73;;;6.90;66.40;;;;;;5096541;28;20079;-74
2023/04/06 03:41:05;;;;;;;0.08;0.08;;;7.00;66.60;;;;;;5088163;28;20531;-73
2023/04/06 03:43:31;;;;;;;0.08;0.08;;;7.00;66.10;;;;;;5090457;28;20043;-74
2023/04/06 03:45:57;;;;;;;0.10;0.10;;;7.00;66.00;;;;;;5098009;28;20111;-73
2023/04/06 03:48:23;;;;;;;0.00;0.00;;;7.00;66.00;;;;;;5102476;28;20046;-72
2023/04/06 03:50:48;;;;;;;0.38;0.38;;;6.90;65.90;;;;;;5097487;28;20034;-74
2023/04/06 03:53:14;;;;;;;0.10;0.10;;;6.90;65.90;;;;;;5102461;28;20097;-74
2023/04/06 03:55:40;;;;;;;0.08;0.08;;;6.80;66.20;;;;;;5092685;28;20059;-75
2023/04/06 03:58:05;;;;;;;0.10;0.10;;;6.80;66.40;;;;;;5089779;28;20059;-74
2023/04/06 04:00:32;;;;;;;0.25;0.20;;;6.90;66.40;;;;;;5091589;28;20638;-73
2023/04/06 04:02:58;;;;;;;0.00;0.00;;;6.70;67.10;;;;;;5088314;28;20050;-72
2023/04/06 04:05:25;;;;;;;0.20;0.20;;;6.70;66.80;;;;;;5095100;28;20475;-74
2023/04/06 04:07:51;;;;;;;0.15;0.15;;;6.70;66.20;;;;;;5084883;28;20024;-75
2023/04/06 04:10:17;;;;;;;0.03;0.03;;;6.80;66.40;;;;;;5085265;28;20113;-75
2023/04/06 04:12:43;;;;;;;0.60;0.60;;;6.70;66.60;;;;;;5087790;28;20036;-73
2023/04/06 04:15:09;;;;;;;0.10;0.10;;;6.70;66.20;;;;;;5097690;28;20038;-74
2023/04/06 04:17:34;;;;;;;0.10;0.10;;;6.80;65.90;;;;;;5083437;28;20590;-76
2023/04/06 04:20:00;;;;;;;0.90;0.90;;;6.80;66.10;;;;;;5087806;28;20036;-73
2023/04/06 04:22:27;;;;;;;0.10;0.10;;;6.80;66.00;;;;;;5089602;28;20080;-76
2023/04/06 04:24:53;;;;;;;;;;;6.80;65.80;;;;;;5096682;28;20766;-74
2023/04/06 04:27:19;;;;;;;0.10;0.10;;;6.80;66.10;;;;;;5101259;28;20010;-73
2023/04/06 04:29:45;;;;;;;6.23;1.83;;;6.70;66.20;;;;;;5095835;28;20031;-74
2023/04/06 04:32:11;;;;;;;0.00;0.00;;;6.70;66.40;;;;;;5089187;28;20034;-73
2023/04/06 04:34:39;;;;;;;0.00;0.00;;;6.70;65.90;;;;;;5100162;28;20032;-73
2023/04/06 04:37:05;;;;;;;0.10;0.10;;;6.80;66.30;;;;;;5100562;28;20509;-74
2023/04/06 04:39:31;;;;;;;0.10;0.10;;;6.70;66.50;;;;;;5101281;28;20027;-73
2023/04/06 04:41:57;;;;;;;0.10;0.10;;;6.50;67.50;;;;;;5100288;28;20498;-74
2023/04/06 04:44:23;;;;;;;0.10;0.10;;;6.50;67.00;;;;;;5090031;28;20063;-73
2023/04/06 04:46:49;;;;;;;0.00;0.00;;;6.50;66.90;;;;;;5095059;28;20781;-75
2023/04/06 04:49:14;;;;;;;0.00;0.00;;;6.40;67.10;;;;;;5097896;28;21404;-75
2023/04/06 04:51:40;;;;;;;0.38;0.38;;;6.40;67.10;;;;;;5097924;28;20032;-74
2023/04/06 04:54:06;;;;;;;0.13;0.13;;;6.40;67.00;;;;;;5101611;28;20098;-74
2023/04/06 04:56:31;;;;;;;1.27;0.98;;;6.30;67.30;;;;;;5098845;28;20112;-73
2023/04/06 04:58:57;;;;;;;0.20;0.20;;;6.30;67.50;;;;;;5104422;28;20103;-73
2023/04/06 05:01:23;;;;;;;0.20;0.20;;;6.30;67.70;;;;;;5103608;28;20028;-73
2023/04/06 05:03:48;;;;;;;0.10;0.10;;;6.30;67.80;;;;;;5098726;28;20453;-74
2023/04/06 05:06:14;;;;;;;0.38;0.38;;;6.30;68.60;;;;;;5103688;28;20031;-76
2023/04/06 05:08:41;;;;;;;0.00;0.00;;;6.20;67.80;;;;;;5103750;28;20020;-74
2023/04/06 05:11:06;;;;;;;0.22;0.22;;;6.30;67.80;;;;;;5104206;28;20038;-73
2023/04/06 05:13:32;;;;;;;1.15;0.63;;;6.30;67.50;;;;;;5106927;28;20035;-74
2023/04/06 05:15:58;;;;;;;0.20;0.20;;;6.30;67.90;;;;;;5100668;28;20054;-73
2023/04/06 05:18:24;;;;;;;1.20;1.08;;;6.30;67.80;;;;;;5104225;28;20038;-74
2023/04/06 05:20:51;;;;;;;0.35;0.35;;;6.30;67.80;;;;;;5101738;28;20023;-74
2023/04/06 05:23:17;;;;;;;;;;;6.30;67.90;;;;;;5094516;28;20483;-74
2023/04/06 05:25:42;;;;;;;0.00;0.00;;;6.30;67.90;;;;;;5091987;28;19912;-75
2023/04/06 05:28:08;;;;;;;0.00;0.00;;;6.30;67.80;;;;;;5100003;28;21096;-75
2023/04/06 05:30:35;;;;;;;0.22;0.22;;;6.30;67.80;;;;;;5101298;28;20027;-74
2023/04/06 05:33:01;;;;;;;0.00;0.00;;;6.30;68.20;;;;;;5099630;28;20522;-75
2023/04/06 05:35:27;;;;;;;0.55;0.55;;;6.20;68.30;;;;;;5104903;28;20741;-74
2023/04/06 05:37:52;;;;;;;0.00;0.00;;;6.20;68.60;;;;;;5101903;28;20032;-76
2023/04/06 05:40:18;;;;;;;0.17;0.17;;;6.20;69.10;;;;;;5095636;28;20032;-75
2023/04/06 05:42:44;;;;;;;0.03;0.03;;;6.10;68.80;;;;;;5101828;28;20199;-75
2023/04/06 05:45:16;;;;;;;0.10;0.10;;;6.20;68.80;;;;;;5097021;28;20036;-75
2023/04/06 05:47:42;;;;;;;0.00;0.00;;;6.20;69.00;;;;;;5102034;28;20227;-74
2023/04/06 05:50:08;;;;;;;0.30;0.30;;;6.20;68.90;;;;;;5099622;28;20038;-75
2023/04/06 05:52:34;;;;;;;0.10;0.10;;;6.10;68.90;;;;;;5100878;28;20040;-74
2023/04/06 05:54:59;;;;;;;3.42;0.75;;;6.20;68.80;;;;;;5105775;28;20023;-76
2023/04/06 05:57:25;;;;;;;1.20;0.57;;;6.20;69.00;;;;;;5104784;28;20044;-75
2023/04/06 05:59:51;;;;;;;0.07;0.07;;;6.30;68.80;;;;;;5103237;28;20028;-73
2023/04/06 06:02:17;;;;;;;0.13;0.13;;;6.50;68.50;;;;;;5092647;28;20016;-74
2023/04/06 06:04:43;;;;;;;0.22;0.22;;;6.60;68.50;;;;;;5104559;28;20660;-74
2023/04/06 06:07:08;;;;;;;0.10;0.10;;;6.70;68.30;;;;;;5105012;28;20096;-74
2023/04/06 06:09:34;;;;;;;0.70;0.65;;;6.60;68.70;;;;;;5101398;28;20576;-73
2023/04/06 06:12:00;;;;;;;0.10;0.10;;;6.80;68.40;;;;;;5103449;28;20109;-75
2023/04/06 06:14:28;;;;;;;0.20;0.20;;;7.10;67.30;;;;;;5102789;28;20555;-75
2023/04/06 06:16:54;;;;;;;0.05;0.05;;;6.70;68.60;;;;;;5104150;28;20031;-75
2023/04/06 06:19:20;;;;;;;0.32;0.32;;;6.60;69.20;;;;;;5096257;28;20115;-74
2023/04/06 06:21:45;;;;;;;0.20;0.20;;;6.70;68.80;;;;;;5102233;28;20034;-74
2023/04/06 06:24:11;;;;;;;0.20;0.20;;;7.10;68.00;;;;;;5103578;28;20115;-74
2023/04/06 06:26:39;;;;;;;0.20;0.20;;;8.10;66.00;;;;;;5105085;28;20027;-73
2023/04/06 06:29:05;;;;;;;0.10;0.10;;;9.10;65.10;;;;;;5098840;28;20031;-74
2023/04/06 06:31:31;;;;;;;0.17;0.17;;;10.00;64.00;;;;;;5092979;28;20032;-72
2023/04/06 06:33:57;;;;;;;0.22;0.22;;;10.70;62.10;;;;;;5104046;28;20834;-74
2023/04/06 06:36:22;;;;;;;0.20;0.20;;;11.30;61.60;;;;;;5104441;28;20025;-75
2023/04/06 06:38:48;;;;;;;0.30;0.30;;;10.70;60.70;;;;;;5103442;28;20019;-73
2023/04/06 06:41:14;;;;;;;0.55;0.52;;;10.80;61.20;;;;;;5103019;28;20078;-73
2023/04/06 06:43:40;;;;;;;0.10;0.10;;;11.20;59.90;;;;;;5104519;28;20024;-75
2023/04/06 06:46:06;;;;;;;0.10;0.10;;;11.90;58.90;;;;;;5103513;28;20031;-75
2023/04/06 06:48:31;;;;;;;6.22;1.33;;;12.40;57.50;;;;;;5099861;28;20023;-73
2023/04/06 06:50:57;;;;;;;0.10;0.10;;;12.60;57.10;;;;;;5100184;28;20032;-73
2023/04/06 06:53:23;;;;;;;0.38;0.38;;;12.80;57.50;;;;;;5104392;28;20499;-73
2023/04/06 06:55:49;;;;;;;1.10;0.57;;;13.00;55.80;;;;;;5099735;28;20038;-73
2023/04/06 06:58:15;;;;;;;0.10;0.10;;;13.30;54.60;;;;;;5103374;28;20548;-75
2023/04/06 07:00:41;;;;;;;0.10;0.10;;;13.40;55.50;;;;;;5103835;28;20040;-75
2023/04/06 07:03:06;;;;;;;0.30;0.30;;;13.60;55.70;;;;;;5097838;28;20097;-73
2023/04/06 07:05:32;;;;;;;0.07;0.07;;;14.00;54.60;;;;;;5098567;28;20023;-74
2023/04/06 07:07:58;;;;;;;0.03;0.03;;;14.50;52.60;;;;;;5097677;28;20528;-73
2023/04/06 07:10:24;;;;;;;0.30;0.30;;;14.40;52.90;;;;;;5103855;28;20027;-74
2023/04/06 07:12:50;;;;;;;0.00;0.00;;;14.50;53.50;;;;;;5103375;28;20084;-74
2023/04/06 07:15:16;;;;;;;0.20;0.20;;;14.50;54.00;;;;;;5096913;28;20027;-73
2023/04/06 07:17:44;;;;;;;0.35;0.35;;;14.80;53.40;;;;;;5102189;28;20837;-74
2023/04/06 07:20:11;;;;;;;0.10;0.10;;;14.70;52.70;;;;;;5097291;28;20035;-73
2023/04/06 07:22:37;;;;;;;0.13;0.13;;;15.30;51.90;;;;;;5074924;28;20510;-72
2023/04/06 07:25:03;;;;;;;;;;;15.00;51.40;;;;;;5097701;28;20027;-74
2023/04/06 07:27:29;;;;;;;0.70;0.50;;;15.50;52.50;;;;;;5092486;28;20331;-73
2023/04/06 07:29:54;;;;;;;0.00;0.00;;;15.70;50.80;;;;;;5100445;28;20588;-74
2023/04/06 07:32:20;;;;;;;0.20;0.20;;;15.80;51.20;;;;;;5094120;28;20585;-72
2023/04/06 07:34:46;;;;;;;0.00;0.00;;;16.90;51.00;;;;;;5072146;28;20028;-74
2023/04/06 07:37:12;;;;;;;1.65;0.70;;;14.70;51.50;;;;;;5102824;28;20015;-74
2023/04/06 07:39:38;;;;;;;0.10;0.10;;;14.20;53.70;;;;;;5094365;28;20047;-73
2023/04/06 07:42:04;;;;;;;0.17;0.17;;;13.10;54.50;;;;;;5089553;28;20038;-74
2023/04/06 07:44:29;;;;;;;0.20;0.20;;;13.60;53.80;;;;;;5101381;28;20617;-75
2023/04/06 07:46:55;;;;;;;0.10;0.10;;;13.10;56.50;;;;;;5080938;28;20027;-73
2023/04/06 07:49:22;;;;;;;0.10;0.10;;;13.00;55.70;;;;;;5103054;28;20026;-74
2023/04/06 07:51:48;;;;;;;;;;;12.60;56.70;;;;;;5091330;28;20096;-73
2023/04/06 07:54:14;;;;;;;0.20;0.20;;;12.80;55.30;;;;;;5098320;28;19915;-74
2023/04/06 07:56:39;;;;;;;0.10;0.10;;;12.60;54.60;;;;;;5076543;28;20119;-75
2023/04/06 07:59:05;;;;;;;0.10;0.10;;;12.40;55.00;;;;;;5088394;28;20081;-73
2023/04/06 08:01:31;;;;;;;0.13;0.13;;;12.30;55.70;;;;;;5089596;28;20032;-73
2023/04/06 08:03:57;;;;;;;0.10;0.10;;;12.40;56.70;;;;;;5101877;28;20063;-72
2023/04/06 08:06:23;;;;;;;0.00;0.00;;;12.40;56.10;;;;;;5098688;28;20375;-75
2023/04/06 08:08:48;;;;;;;0.10;0.10;;;12.60;56.20;;;;;;5091210;28;20048;-74
2023/04/06 08:11:14;;;;;;;0.10;0.10;;;12.90;55.10;;;;;;5099306;28;20036;-73
2023/04/06 08:13:40;;;;;;;0.20;0.20;;;12.90;54.20;;;;;;5098308;28;20034;-76
2023/04/06 08:16:06;;;;;;;0.10;0.10;;;13.00;53.70;;;;;;5091918;28;20359;-73
2023/04/06 08:18:32;;;;;;;0.43;0.43;;;12.90;55.40;;;;;;5092724;28;20026;-73
2023/04/06 08:20:57;;;;;;;0.30;0.30;;;13.10;55.80;;;;;;5098560;28;20039;-73
2023/04/06 08:23:23;;;;;;;0.55;0.52;;;13.20;57.30;;;;;;5093942;28;20105;-73
2023/04/06 08:25:49;;;;;;;1.60;0.60;;;13.00;55.60;;;;;;5094706;28;20430;-73
2023/04/06 08:28:15;;;;;;;0.10;0.10;;;13.00;54.80;;;;;;5089484;28;20055;-74
2023/04/06 08:30:42;;;;;;;0.30;0.30;;;13.30;53.60;;;;;;5097472;28;20527;-76
2023/04/06 08:33:08;;;;;;;0.57;0.35;;;13.60;54.80;;;;;;5097729;28;20060;-73
2023/04/06 08:35:34;;;;;;;0.00;0.00;;;13.60;52.60;;;;;;5096692;28;20096;-76
2023/04/06 08:38:00;;;;;;;0.43;0.23;;;14.30;52.10;;;;;;5081505;28;20437;-74
2023/04/06 08:40:26;;;;;;;0.13;0.13;;;15.60;50.00;;;;;;5094301;28;20623;-73
2023/04/06 08:42:55;;;;;;;0.13;0.13;;;15.20;52.40;;;;;;5079875;28;20062;-75
2023/04/06 08:45:21;;;;;;;0.10;0.10;;;16.10;51.90;;;;;;5102610;28;20113;-73
2023/04/06 08:47:52;;;;;;;0.00;0.00;;;18.00;50.80;;;;;;5098197;28;20032;-74
2023/04/06 08:50:18;;;;;;;0.13;0.13;;;19.20;49.70;;;;;;5096857;28;20032;-74
2023/04/06 08:52:47;;;;;;;0.10;0.10;;;18.30;47.50;;;;;;5094324;28;20032;-73
2023/04/06 08:55:13;;;;;;;0.10;0.10;;;18.50;47.60;;;;;;5098019;28;20145;-75
2023/04/06 08:57:39;;;;;;;0.00;0.00;;;17.80;45.90;;;;;;5087142;28;20610;-74
2023/04/06 09:00:10;;;;;;;0.00;0.00;;;20.20;46.10;;;;;;5097982;28;20043;-75
2023/04/06 09:02:39;;;;;;;0.10;0.10;;;22.50;45.50;;;;;;5096658;28;20028;-73
2023/04/06 09:05:05;;;;;;;0.13;0.13;;;23.00;44.30;;;;;;5097878;28;20106;-74
2023/04/06 09:07:31;;;;;;;0.03;0.03;;;23.20;42.10;;;;;;5097026;28;20432;-75
2023/04/06 09:09:57;;;;;;;0.00;0.00;;;22.60;42.60;;;;;;5085821;28;20048;-73
2023/04/06 09:12:27;;;;;;;0.20;0.20;;;23.50;42.90;;;;;;5085287;28;20060;-75
2023/04/06 09:14:53;;;;;;;0.17;0.17;;;22.20;39.40;;;;;;5094935;28;20035;-76
2023/04/06 09:17:23;;;;;;;0.30;0.30;;;23.30;44.60;;;;;;5091149;28;20028;-74
2023/04/06 09:19:49;;;;;;;0.20;0.20;;;24.00;42.70;;;;;;5064404;28;20478;-75
2023/04/06 09:22:15;;;;;;;0.00;0.00;;;24.20;41.20;;;;;;5086107;28;20890;-75
2023/04/06 09:24:59;;;;;;;0.63;0.57;;;24.00;43.00;;;;;;5101851;28;20059;-74
2023/04/06 09:27:32;;;;;;;0.00;0.00;;;24.60;43.60;;;;;;5086983;28;20107;-74
2023/04/06 09:30:16;;;;;;;0.20;0.20;;;24.70;42.00;;;;;;5099706;28;20035;-73
2023/04/06 09:32:46;;;;;;;2.45;0.50;;;24.10;40.00;;;;;;5095270;28;20028;-74
2023/04/06 09:35:12;;;;;;;0.10;0.10;;;23.60;39.00;;;;;;5094164;28;20059;-74
2023/04/06 09:37:38;;;;;;;0.10;0.10;;;23.50;40.40;;;;;;5103460;28;20115;-74
2023/04/06 09:40:08;;;;;;;0.43;0.43;;;24.20;38.40;;;;;;5095517;28;20046;-74
2023/04/06 09:42:34;;;;;;;0.43;0.22;;;22.90;37.00;;;;;;5103639;28;20085;-74
2023/04/06 09:45:00;;;;;;;;;;;23.20;39.00;;;;;;5103446;28;20097;-74
2023/04/06 09:47:26;;;;;;;0.10;0.10;;;23.40;37.80;;;;;;5101069;28;20374;-75
2023/04/06 09:49:57;;;;;;;0.50;0.50;;;23.70;36.40;;;;;;5104838;28;20035;-74
2023/04/06 09:52:30;;;;;;;0.22;0.22;;;22.90;36.30;;;;;;5100004;28;20053;-74
2023/04/06 09:55:03;;;;;;;0.30;0.30;;;21.80;36.00;;;;;;5101434;28;20028;-73
2023/04/06 09:57:36;;;;;;;0.88;0.85;;;22.10;37.20;;;;;;5104584;28;20079;-75
2023/04/06 10:00:14;;;;;;;0.15;0.15;;;22.60;33.70;;;;;;5097117;28;20107;-76
2023/04/06 10:03:07;;;;;;;0.22;0.22;;;22.50;34.10;;;;;;5091648;28;20090;-75
2023/04/06 10:05:45;;;;;;;0.20;0.20;;;22.30;35.00;;;;;;5078846;28;20498;-73
2023/04/06 10:08:11;;;;;;;0.10;0.10;;;22.50;36.90;;;;;;5099330;28;20030;-74
2023/04/06 10:10:37;;;;;;;0.52;0.52;;;24.20;37.30;;;;;;5098464;28;20034;-74
2023/04/06 10:13:07;;;;;;;0.30;0.30;;;23.50;36.00;;;;;;5094467;28;20036;-73
2023/04/06 10:15:33;;;;;;;0.10;0.10;;;21.90;35.90;;;;;;5090624;28;20060;-73
2023/04/06 10:18:00;;;;;;;0.30;0.30;;;19.60;38.20;;;;;;5091425;28;20021;-73
2023/04/06 10:20:38;;;;;;;0.10;0.10;;;18.20;38.30;;;;;;5086543;28;20046;-73
2023/04/06 10:23:15;;;;;;;0.20;0.20;;;17.50;40.40;;;;;;5097947;28;20762;-72
2023/04/06 10:25:54;;;;;;;0.30;0.20;;;17.80;41.20;;;;;;5096360;28;20024;-72
2023/04/06 10:28:20;;;;;;;8.20;0.63;;;18.80;42.40;;;;;;5096681;28;20034;-74
2023/04/06 10:30:46;;;;;;;0.10;0.10;;;18.80;45.40;;;;;;5100755;28;20024;-72
2023/04/06 10:33:20;;;;;;;0.40;0.40;;;18.40;48.40;;;;;;5090984;28;20734;-76
2023/04/06 10:35:46;;;;;;;0.90;0.45;;;18.20;49.30;;;;;;5095975;28;20410;-74
2023/04/06 10:38:14;;;;;;;0.20;0.20;;;18.30;44.60;;;;;;5100241;28;20917;-76
2023/04/06 10:40:42;;;;;;;3.70;1.00;;;18.20;47.00;;;;;;5088387;28;20035;-75
2023/04/06 10:43:13;;;;;;;0.45;0.45;;;18.40;48.20;;;;;;5101588;28;20130;-74
2023/04/06 10:45:40;;;;;;;0.00;0.00;;;18.60;49.80;;;;;;5088579;28;20102;-72
2023/04/06 10:48:19;;;;;;;0.15;0.15;;;18.10;49.50;;;;;;5097613;28;20028;-74
2023/04/06 10:50:48;;;;;;;0.00;0.00;;;18.10;47.10;;;;;;5101129;28;20106;-76
2023/04/06 10:53:25;;;;;;;0.00;0.00;;;17.70;50.40;;;;;;5099016;27;20030;-74
2023/04/06 10:55:51;;;;;;;0.10;0.10;;;17.90;46.60;;;;;;5100201;28;20028;-74
2023/04/06 10:58:17;;;;;;;0.10;0.10;;;17.90;43.80;;;;;;5097866;28;20048;-77
2023/04/06 11:00:45;;;;;;;0.10;0.10;;;18.20;47.10;;;;;;5092438;28;20032;-76
2023/04/06 11:03:10;;;;;;;0.00;0.00;;;18.50;46.30;;;;;;5098750;28;20030;-73
2023/04/06 11:05:36;;;;;;;0.00;0.00;;;19.00;42.70;;;;;;5096399;28;20028;-74
2023/04/06 11:08:02;;;;;;;0.13;0.13;;;19.10;44.00;;;;;;5089294;28;20097;-76
2023/04/06 11:10:29;;;;;;;2.17;0.57;;;18.70;39.80;;;;;;5084787;28;20076;-74
2023/04/06 11:12:56;;;;;;;0.00;0.00;;;19.40;40.60;;;;;;5095343;28;20105;-74
2023/04/06 11:15:21;;;;;;;0.10;0.10;;;18.80;37.20;;;;;;5089430;28;20487;-73
2023/04/06 11:17:49;;;;;;;0.23;0.17;;;18.10;40.60;;;;;;5094060;28;20035;-75
2023/04/06 11:20:15;;;;;;;1.90;0.32;;;18.80;39.40;;;;;;5097253;28;20027;-76
2023/04/06 11:22:53;;;;;;;0.05;0.05;;;19.40;47.00;;;;;;5089093;28;20505;-73
2023/04/06 11:25:19;;;;;;;0.00;0.00;;;18.80;42.90;;;;;;5098878;28;20674;-74
2023/04/06 11:27:48;;;;;;;0.13;0.13;;;18.80;42.00;;;;;;5091843;28;20052;-77
2023/04/06 11:30:14;;;;;;;0.10;0.10;;;19.50;42.40;;;;;;5103029;28;20339;-74
2023/04/06 11:32:43;;;;;;;;;;;19.40;44.90;;;;;;5091957;28;20043;-74
2023/04/06 11:35:26;;;;;;;0.00;0.00;;;19.20;46.10;;;;;;5098978;28;19918;-74
2023/04/06 11:37:52;;;;;;;0.17;0.17;;;19.10;43.10;;;;;;5083682;28;20098;-75
2023/04/06 11:40:22;;;;;;;0.03;0.03;;;18.20;42.30;;;;;;5095409;28;20050;-74
2023/04/06 11:42:57;;;;;;;0.00;0.00;;;18.70;44.70;;;;;;5101911;28;20162;-73
2023/04/06 11:45:23;;;;;;;0.10;0.10;;;19.20;48.30;;;;;;5093270;28;20035;-73
2023/04/06 11:48:00;;;;;;;0.93;0.70;;;19.00;46.30;;;;;;5096369;28;20036;-73
2023/04/06 11:50:31;;;;;;;;;;;19.00;51.20;;;;;;5100129;28;20295;-74
2023/04/06 11:53:01;;;;;;;0.35;0.30;;;19.00;48.40;;;;;;5096905;28;19915;-72
2023/04/06 11:55:27;;;;;;;0.00;0.00;;;18.80;46.30;;;;;;5083678;28;20433;-75
2023/04/06 11:57:52;;;;;;;0.30;0.10;;;19.20;44.70;;;;;;5099659;28;20055;-76
2023/04/06 12:00:20;;;;;;;0.10;0.10;;;19.50;44.60;;;;;;5097162;28;20043;-73
2023/04/06 12:02:46;;;;;;;0.17;0.17;;;19.80;45.70;;;;;;5091760;28;20043;-74
2023/04/06 12:05:12;;;;;;;0.60;0.25;;;20.10;46.00;;;;;;5093291;28;20019;-74
2023/04/06 12:07:38;;;;;;;0.30;0.30;;;20.40;47.30;;;;;;5094002;28;20058;-73
2023/04/06 12:10:05;;;;;;;0.10;0.10;;;20.50;46.90;;;;;;5080512;28;20105;-76
2023/04/06 12:12:31;;;;;;;0.10;0.10;;;19.40;41.50;;;;;;5089910;28;20055;-74
2023/04/06 12:14:57;;;;;;;0.00;0.00;;;19.70;43.40;;;;;;5096655;28;20045;-77
2023/04/06 12:17:23;;;;;;;0.50;0.47;;;18.80;43.40;;;;;;5091958;28;20028;-75
2023/04/06 12:19:49;;;;;;;0.08;0.08;;;19.10;45.50;;;;;;5091166;28;20042;-75
2023/04/06 12:22:15;;;;;;;0.63;0.57;;;19.00;44.50;;;;;;5087629;28;20024;-76
2023/04/06 12:24:40;;;;;;;3.10;1.00;;;19.00;41.20;;;;;;5093613;28;20103;-74
2023/04/06 12:27:06;;;;;;;4.50;0.97;;;18.60;43.40;;;;;;5070724;28;20026;-75
2023/04/06 12:29:32;;;;;;;0.47;0.47;;;18.60;44.00;;;;;;5098443;28;20015;-75
2023/04/06 12:32:01;;;;;;;0.17;0.17;;;18.80;45.10;;;;;;5098185;28;20850;-75
2023/04/06 12:34:26;;;;;;;0.00;0.00;;;18.40;43.10;;;;;;5089730;28;20028;-74
2023/04/06 12:36:52;;;;;;;2.00;0.43;;;18.20;39.10;;;;;;5093117;28;20116;-74
2023/04/06 12:39:20;;;;;;;0.20;0.20;;;18.50;41.30;;;;;;5090147;28;20118;-74
2023/04/06 12:41:45;;;;;;;0.20;0.20;;;18.80;44.90;;;;;;5096172;28;20020;-74
2023/04/06 12:44:11;;;;;;;0.23;0.23;;;18.40;41.90;;;;;;5094641;28;20078;-76
2023/04/06 12:46:37;;;;;;;0.00;0.00;;;18.10;41.70;;;;;;5100773;28;20032;-75
2023/04/06 12:49:03;;;;;;;0.00;0.00;;;17.80;42.70;;;;;;5094053;28;20027;-77
2023/04/06 12:51:28;;;;;;;0.10;0.10;;;17.40;40.30;;;;;;5090507;28;20088;-74